createdAt,value
2018-08-24T00:01:24.499Z,73.50
2018-08-24T00:03:52.867Z,73.60
2018-08-24T00:06:21.195Z,73.80
2018-08-24T00:08:49.430Z,73.90
2018-08-24T00:11:18.849Z,74.00
2018-08-24T00:13:47.150Z,74.20
2018-08-24T00:16:19.702Z,74.30
2018-08-24T00:18:48.002Z,74.50
2018-08-24T00:21:16.231Z,74.50
2018-08-24T00:23:44.467Z,74.80
2018-08-24T00:26:12.849Z,74.70
2018-08-24T00:28:41.196Z,74.50
2018-08-24T00:31:09.390Z,74.60
2018-08-24T00:33:38.653Z,74.80
2018-08-24T00:36:06.990Z,74.90
2018-08-24T00:38:35.502Z,75.10
2018-08-24T19:32:34.522Z,52.30
2018-08-24T19:35:02.986Z,52.70
2018-08-24T19:37:31.284Z,52.90
2018-08-24T19:40:05.347Z,53.40
2018-08-24T19:42:33.680Z,53.40
2018-08-24T19:53:07.074Z,53.80
2018-08-24T19:55:35.674Z,54.20
2018-08-24T19:58:09.458Z,55.30
2018-08-24T20:00:37.824Z,55.50
2018-08-24T20:03:06.078Z,55.90
2018-08-24T20:05:34.443Z,56.70
2018-08-24T20:08:08.025Z,56.50
2018-08-24T20:10:36.458Z,56.60
2018-08-24T20:13:04.893Z,56.70
2018-08-24T20:15:39.376Z,57.50
2018-08-24T20:18:07.635Z,56.50
2018-08-24T20:20:35.878Z,57.10
2018-08-24T20:23:04.327Z,56.70
2018-08-24T20:25:32.691Z,56.60
2018-08-24T20:28:00.948Z,56.60
2018-08-24T20:30:29.249Z,57.00
2018-08-24T20:32:58.458Z,56.90
2018-08-24T20:35:26.702Z,56.80
2018-08-24T20:37:55.109Z,57.10
2018-08-24T20:40:23.460Z,57.20
2018-08-24T20:52:22.061Z,57.60
2018-08-24T20:54:50.385Z,57.60
2018-08-24T20:57:18.719Z,58.40
2018-08-24T20:59:46.965Z,58.00
2018-08-24T21:02:15.366Z,58.30
2018-08-24T21:04:43.794Z,58.70
2018-08-24T21:07:13.083Z,59.00
2018-08-24T21:09:41.352Z,59.30
2018-08-24T21:12:09.550Z,59.30
2018-08-24T21:14:37.924Z,59.50
2018-08-24T21:17:06.192Z,59.40
2018-08-24T21:19:34.451Z,59.20
2018-08-24T21:22:03.521Z,59.20
2018-08-24T21:24:31.731Z,59.50
2018-08-24T21:26:59.945Z,59.70
2018-08-24T21:29:30.237Z,59.80
2018-08-24T21:31:59.515Z,60.50
2018-08-24T21:34:27.811Z,60.30
2018-08-24T21:36:56.099Z,60.70
2018-08-24T21:39:24.329Z,60.50
2018-08-24T21:41:52.525Z,60.30
2018-08-24T21:44:21.157Z,59.40
2018-08-24T21:46:49.398Z,59.40
2018-08-24T21:49:17.673Z,59.90
2018-08-24T21:52:23.177Z,59.30
2018-08-24T21:54:51.398Z,59.40
2018-08-24T21:57:21.474Z,59.40
2018-08-24T21:59:51.099Z,59.50
2018-08-24T22:02:20.280Z,59.80
2018-08-24T22:04:49.427Z,59.80
2018-08-24T22:07:17.779Z,59.60
2018-08-24T22:09:45.997Z,59.80
2018-08-24T22:12:14.234Z,60.80
2018-08-24T22:14:42.600Z,60.20
2018-08-24T22:17:10.847Z,60.10
2018-08-24T22:19:39.053Z,60.50
2018-08-24T22:22:08.277Z,60.70
2018-08-24T22:24:36.560Z,61.10
2018-08-24T22:27:05.896Z,61.10
2018-08-24T22:29:34.085Z,61.30
2018-08-24T22:32:02.285Z,61.60
2018-08-24T22:34:30.550Z,61.70
2018-08-24T22:36:58.764Z,62.30
2018-08-24T22:39:27.115Z,62.10
2018-08-24T22:41:55.380Z,61.70
2018-08-24T22:44:23.614Z,62.00
2018-08-24T22:46:52.024Z,62.20
2018-08-24T22:49:20.970Z,62.30
2018-08-24T22:51:49.224Z,63.10
2018-08-24T22:54:18.697Z,62.50
2018-08-24T22:56:47.618Z,62.70
2018-08-24T22:59:18.514Z,62.60
2018-08-24T23:01:46.749Z,62.20
2018-08-24T23:04:15.022Z,62.70
2018-08-24T23:06:43.355Z,62.00
2018-08-24T23:09:11.990Z,61.30
2018-08-24T23:11:40.386Z,61.00
2018-08-24T23:14:09.062Z,61.10
2018-08-24T23:16:37.363Z,61.30
2018-08-24T23:19:05.863Z,60.50
2018-08-24T23:21:34.096Z,60.40
2018-08-24T23:24:03.617Z,59.80
2018-08-24T23:26:32.137Z,60.00
2018-08-24T23:29:00.313Z,60.10
2018-08-24T23:31:29.396Z,60.00
2018-08-24T23:33:57.564Z,59.50
2018-08-24T23:36:25.786Z,59.70
2018-08-24T23:38:54.029Z,59.50
2018-08-24T23:41:22.392Z,59.60
2018-08-24T23:43:50.626Z,59.70
2018-08-24T23:46:18.846Z,59.00
2018-08-24T23:48:47.159Z,58.60
2018-08-24T23:51:15.608Z,58.40
2018-08-24T23:53:44.193Z,58.30
2018-08-24T23:56:12.724Z,57.90
2018-08-24T23:58:41.232Z,57.60
